sensor_id;sensor_type;location;lat;lon;timestamp;P1;durP1;ratioP1;P2;durP2;ratioP2
7761;SDS011;3925;48.636;9.516;2022-07-22T00:02:18;7.43;;;6.73;;
7761;SDS011;3925;48.636;9.516;2022-07-22T00:04:46;7.00;;;6.40;;
7761;SDS011;3925;48.636;9.516;2022-07-22T00:07:13;8.27;;;6.70;;
7761;SDS011;3925;48.636;9.516;2022-07-22T00:09:40;7.67;;;6.97;;
7761;SDS011;3925;48.636;9.516;2022-07-22T00:12:07;8.13;;;7.33;;
7761;SDS011;3925;48.636;9.516;2022-07-22T00:14:34;7.63;;;6.97;;
7761;SDS011;3925;48.636;9.516;2022-07-22T00:17:01;7.87;;;7.20;;
7761;SDS011;3925;48.636;9.516;2022-07-22T00:19:29;8.30;;;7.57;;
7761;SDS011;3925;48.636;9.516;2022-07-22T00:21:57;8.50;;;6.93;;
7761;SDS011;3925;48.636;9.516;2022-07-22T00:24:24;7.00;;;6.40;;
7761;SDS011;3925;48.636;9.516;2022-07-22T00:26:50;7.77;;;7.00;;
7761;SDS011;3925;48.636;9.516;2022-07-22T00:29:17;6.73;;;6.23;;
7761;SDS011;3925;48.636;9.516;2022-07-22T00:31:44;7.77;;;7.17;;
7761;SDS011;3925;48.636;9.516;2022-07-22T00:34:11;7.83;;;7.10;;
7761;SDS011;3925;48.636;9.516;2022-07-22T00:36:38;8.10;;;7.50;;
7761;SDS011;3925;48.636;9.516;2022-07-22T00:39:06;8.10;;;7.40;;
7761;SDS011;3925;48.636;9.516;2022-07-22T00:41:33;7.57;;;6.87;;
7761;SDS011;3925;48.636;9.516;2022-07-22T00:44:01;7.33;;;6.73;;
7761;SDS011;3925;48.636;9.516;2022-07-22T00:46:30;7.80;;;6.93;;
7761;SDS011;3925;48.636;9.516;2022-07-22T00:48:58;7.07;;;6.50;;
7761;SDS011;3925;48.636;9.516;2022-07-22T00:51:26;7.10;;;6.47;;
7761;SDS011;3925;48.636;9.516;2022-07-22T00:53:54;9.03;;;7.50;;
7761;SDS011;3925;48.636;9.516;2022-07-22T00:56:24;7.27;;;6.67;;
7761;SDS011;3925;48.636;9.516;2022-07-22T00:58:52;8.53;;;6.87;;
7761;SDS011;3925;48.636;9.516;2022-07-22T01:01:20;7.57;;;7.03;;
7761;SDS011;3925;48.636;9.516;2022-07-22T01:03:47;8.80;;;8.10;;
7761;SDS011;3925;48.636;9.516;2022-07-22T01:06:14;7.37;;;6.80;;
7761;SDS011;3925;48.636;9.516;2022-07-22T01:08:41;7.00;;;6.50;;
7761;SDS011;3925;48.636;9.516;2022-07-22T01:11:09;7.60;;;7.00;;
7761;SDS011;3925;48.636;9.516;2022-07-22T01:13:38;9.10;;;7.50;;
7761;SDS011;3925;48.636;9.516;2022-07-22T01:16:06;7.83;;;7.13;;
7761;SDS011;3925;48.636;9.516;2022-07-22T01:18:35;7.90;;;7.30;;
7761;SDS011;3925;48.636;9.516;2022-07-22T01:21:04;8.50;;;7.60;;
7761;SDS011;3925;48.636;9.516;2022-07-22T01:23:32;7.67;;;6.93;;
7761;SDS011;3925;48.636;9.516;2022-07-22T01:25:59;8.43;;;7.47;;
7761;SDS011;3925;48.636;9.516;2022-07-22T01:28:26;8.07;;;7.30;;
7761;SDS011;3925;48.636;9.516;2022-07-22T01:30:53;7.10;;;6.50;;
7761;SDS011;3925;48.636;9.516;2022-07-22T01:33:21;8.83;;;7.10;;
7761;SDS011;3925;48.636;9.516;2022-07-22T01:35:49;8.80;;;8.10;;
7761;SDS011;3925;48.636;9.516;2022-07-22T01:38:17;8.87;;;7.60;;
7761;SDS011;3925;48.636;9.516;2022-07-22T01:40:44;7.53;;;6.90;;
7761;SDS011;3925;48.636;9.516;2022-07-22T01:43:12;8.50;;;7.80;;
7761;SDS011;3925;48.636;9.516;2022-07-22T01:45:42;7.83;;;7.23;;
7761;SDS011;3925;48.636;9.516;2022-07-22T01:48:10;8.07;;;7.33;;
7761;SDS011;3925;48.636;9.516;2022-07-22T01:50:37;9.47;;;8.60;;
7761;SDS011;3925;48.636;9.516;2022-07-22T01:53:05;9.20;;;8.33;;
7761;SDS011;3925;48.636;9.516;2022-07-22T01:55:34;8.30;;;7.57;;
7761;SDS011;3925;48.636;9.516;2022-07-22T01:58:01;8.40;;;7.60;;
7761;SDS011;3925;48.636;9.516;2022-07-22T02:00:29;8.50;;;7.80;;
7761;SDS011;3925;48.636;9.516;2022-07-22T02:02:56;7.60;;;7.00;;
7761;SDS011;3925;48.636;9.516;2022-07-22T02:05:23;8.57;;;7.80;;
7761;SDS011;3925;48.636;9.516;2022-07-22T02:07:50;8.43;;;7.50;;
7761;SDS011;3925;48.636;9.516;2022-07-22T02:10:17;8.60;;;7.80;;
7761;SDS011;3925;48.636;9.516;2022-07-22T02:12:46;8.20;;;7.60;;
7761;SDS011;3925;48.636;9.516;2022-07-22T02:15:12;9.47;;;8.53;;
7761;SDS011;3925;48.636;9.516;2022-07-22T02:17:39;7.83;;;7.17;;
7761;SDS011;3925;48.636;9.516;2022-07-22T02:20:07;9.13;;;8.33;;
7761;SDS011;3925;48.636;9.516;2022-07-22T02:22:34;8.53;;;7.73;;
7761;SDS011;3925;48.636;9.516;2022-07-22T02:25:01;7.87;;;7.30;;
7761;SDS011;3925;48.636;9.516;2022-07-22T02:27:29;8.60;;;7.67;;
7761;SDS011;3925;48.636;9.516;2022-07-22T02:29:57;9.90;;;8.97;;
7761;SDS011;3925;48.636;9.516;2022-07-22T02:32:24;8.33;;;7.73;;
7761;SDS011;3925;48.636;9.516;2022-07-22T02:34:51;7.57;;;7.07;;
7761;SDS011;3925;48.636;9.516;2022-07-22T02:37:18;8.93;;;7.83;;
7761;SDS011;3925;48.636;9.516;2022-07-22T02:39:45;8.27;;;7.67;;
7761;SDS011;3925;48.636;9.516;2022-07-22T02:42:12;8.73;;;8.03;;
7761;SDS011;3925;48.636;9.516;2022-07-22T02:44:39;7.63;;;7.03;;
7761;SDS011;3925;48.636;9.516;2022-07-22T02:47:08;8.60;;;7.90;;
7761;SDS011;3925;48.636;9.516;2022-07-22T02:49:35;8.87;;;8.03;;
7761;SDS011;3925;48.636;9.516;2022-07-22T02:52:01;8.23;;;7.43;;
7761;SDS011;3925;48.636;9.516;2022-07-22T02:54:28;8.13;;;7.43;;
7761;SDS011;3925;48.636;9.516;2022-07-22T02:56:55;7.20;;;6.50;;
7761;SDS011;3925;48.636;9.516;2022-07-22T02:59:22;8.60;;;7.80;;
7761;SDS011;3925;48.636;9.516;2022-07-22T03:01:49;7.30;;;6.80;;
7761;SDS011;3925;48.636;9.516;2022-07-22T03:04:17;8.30;;;7.43;;
7761;SDS011;3925;48.636;9.516;2022-07-22T03:06:44;8.00;;;7.43;;
7761;SDS011;3925;48.636;9.516;2022-07-22T03:09:11;7.67;;;7.07;;
7761;SDS011;3925;48.636;9.516;2022-07-22T03:11:38;8.83;;;8.03;;
7761;SDS011;3925;48.636;9.516;2022-07-22T03:14:04;7.50;;;6.77;;
7761;SDS011;3925;48.636;9.516;2022-07-22T03:16:31;7.90;;;7.20;;
7761;SDS011;3925;48.636;9.516;2022-07-22T03:18:58;7.50;;;6.80;;
7761;SDS011;3925;48.636;9.516;2022-07-22T03:21:26;8.60;;;7.90;;
7761;SDS011;3925;48.636;9.516;2022-07-22T03:23:53;8.27;;;7.57;;
7761;SDS011;3925;48.636;9.516;2022-07-22T03:26:20;9.07;;;8.33;;
7761;SDS011;3925;48.636;9.516;2022-07-22T03:28:48;8.40;;;7.13;;
7761;SDS011;3925;48.636;9.516;2022-07-22T03:31:15;8.43;;;7.70;;
7761;SDS011;3925;48.636;9.516;2022-07-22T03:33:42;10.20;;;9.30;;
7761;SDS011;3925;48.636;9.516;2022-07-22T03:36:09;8.67;;;7.67;;
7761;SDS011;3925;48.636;9.516;2022-07-22T03:38:37;8.73;;;7.70;;
7761;SDS011;3925;48.636;9.516;2022-07-22T03:41:04;7.77;;;6.97;;
7761;SDS011;3925;48.636;9.516;2022-07-22T03:43:31;7.73;;;6.90;;
7761;SDS011;3925;48.636;9.516;2022-07-22T03:45:58;8.87;;;8.10;;
7761;SDS011;3925;48.636;9.516;2022-07-22T03:48:24;8.70;;;8.10;;
7761;SDS011;3925;48.636;9.516;2022-07-22T03:50:52;9.10;;;8.30;;
7761;SDS011;3925;48.636;9.516;2022-07-22T03:53:18;10.80;;;9.70;;
7761;SDS011;3925;48.636;9.516;2022-07-22T03:55:47;9.47;;;8.57;;
7761;SDS011;3925;48.636;9.516;2022-07-22T03:58:15;10.00;;;9.10;;
7761;SDS011;3925;48.636;9.516;2022-07-22T04:00:43;9.30;;;8.50;;
7761;SDS011;3925;48.636;9.516;2022-07-22T04:03:10;13.23;;;9.27;;
7761;SDS011;3925;48.636;9.516;2022-07-22T04:05:36;9.10;;;8.20;;
7761;SDS011;3925;48.636;9.516;2022-07-22T04:08:04;9.90;;;7.70;;
7761;SDS011;3925;48.636;9.516;2022-07-22T04:10:31;9.20;;;8.30;;
7761;SDS011;3925;48.636;9.516;2022-07-22T04:12:59;9.27;;;8.40;;
7761;SDS011;3925;48.636;9.516;2022-07-22T04:15:26;8.37;;;7.80;;
7761;SDS011;3925;48.636;9.516;2022-07-22T04:17:53;8.43;;;7.73;;
7761;SDS011;3925;48.636;9.516;2022-07-22T04:20:20;8.20;;;7.60;;
7761;SDS011;3925;48.636;9.516;2022-07-22T04:22:47;8.10;;;7.20;;
7761;SDS011;3925;48.636;9.516;2022-07-22T04:25:14;8.50;;;7.80;;
7761;SDS011;3925;48.636;9.516;2022-07-22T04:27:41;8.00;;;7.30;;
7761;SDS011;3925;48.636;9.516;2022-07-22T04:30:10;9.70;;;8.00;;
7761;SDS011;3925;48.636;9.516;2022-07-22T04:32:37;9.40;;;7.90;;
7761;SDS011;3925;48.636;9.516;2022-07-22T04:35:04;8.23;;;7.53;;
7761;SDS011;3925;48.636;9.516;2022-07-22T04:37:31;8.27;;;7.57;;
7761;SDS011;3925;48.636;9.516;2022-07-22T04:39:58;8.80;;;8.03;;
7761;SDS011;3925;48.636;9.516;2022-07-22T04:42:25;10.80;;;9.80;;
7761;SDS011;3925;48.636;9.516;2022-07-22T04:44:52;7.80;;;7.10;;
7761;SDS011;3925;48.636;9.516;2022-07-22T04:47:20;8.03;;;7.43;;
7761;SDS011;3925;48.636;9.516;2022-07-22T04:49:47;9.10;;;8.40;;
7761;SDS011;3925;48.636;9.516;2022-07-22T04:52:14;8.43;;;7.73;;
7761;SDS011;3925;48.636;9.516;2022-07-22T04:54:41;8.77;;;8.00;;
7761;SDS011;3925;48.636;9.516;2022-07-22T04:57:08;11.03;;;8.17;;
7761;SDS011;3925;48.636;9.516;2022-07-22T04:59:35;9.87;;;8.97;;
7761;SDS011;3925;48.636;9.516;2022-07-22T05:02:02;10.17;;;9.07;;
7761;SDS011;3925;48.636;9.516;2022-07-22T05:04:30;9.93;;;9.13;;
7761;SDS011;3925;48.636;9.516;2022-07-22T05:06:57;8.93;;;8.07;;
7761;SDS011;3925;48.636;9.516;2022-07-22T05:09:24;10.43;;;9.40;;
7761;SDS011;3925;48.636;9.516;2022-07-22T05:11:51;10.67;;;9.77;;
7761;SDS011;3925;48.636;9.516;2022-07-22T05:14:18;9.13;;;8.50;;
7761;SDS011;3925;48.636;9.516;2022-07-22T05:16:45;9.50;;;8.50;;
7761;SDS011;3925;48.636;9.516;2022-07-22T05:19:12;8.57;;;7.83;;
7761;SDS011;3925;48.636;9.516;2022-07-22T05:21:40;9.67;;;8.53;;
7761;SDS011;3925;48.636;9.516;2022-07-22T05:24:07;16.67;;;8.97;;
7761;SDS011;3925;48.636;9.516;2022-07-22T05:26:34;8.90;;;8.20;;
7761;SDS011;3925;48.636;9.516;2022-07-22T05:29:01;7.67;;;7.03;;
7761;SDS011;3925;48.636;9.516;2022-07-22T05:31:28;7.90;;;7.20;;
7761;SDS011;3925;48.636;9.516;2022-07-22T05:33:55;7.50;;;6.60;;
7761;SDS011;3925;48.636;9.516;2022-07-22T05:36:22;7.83;;;7.17;;
7761;SDS011;3925;48.636;9.516;2022-07-22T05:38:50;6.17;;;5.57;;
7761;SDS011;3925;48.636;9.516;2022-07-22T05:41:17;7.67;;;6.90;;
7761;SDS011;3925;48.636;9.516;2022-07-22T05:43:44;7.33;;;6.23;;
7761;SDS011;3925;48.636;9.516;2022-07-22T05:46:11;7.13;;;6.20;;
7761;SDS011;3925;48.636;9.516;2022-07-22T05:48:38;7.60;;;7.00;;
7761;SDS011;3925;48.636;9.516;2022-07-22T05:51:10;7.10;;;6.40;;
7761;SDS011;3925;48.636;9.516;2022-07-22T05:53:37;6.17;;;5.53;;
7761;SDS011;3925;48.636;9.516;2022-07-22T05:56:06;7.10;;;5.60;;
7761;SDS011;3925;48.636;9.516;2022-07-22T05:58:35;6.70;;;6.10;;
7761;SDS011;3925;48.636;9.516;2022-07-22T06:01:02;6.43;;;5.83;;
7761;SDS011;3925;48.636;9.516;2022-07-22T06:03:29;6.30;;;5.43;;
7761;SDS011;3925;48.636;9.516;2022-07-22T06:05:56;5.87;;;5.40;;
7761;SDS011;3925;48.636;9.516;2022-07-22T06:08:23;6.00;;;5.47;;
7761;SDS011;3925;48.636;9.516;2022-07-22T06:10:50;5.97;;;5.43;;
7761;SDS011;3925;48.636;9.516;2022-07-22T06:13:18;6.60;;;6.00;;
7761;SDS011;3925;48.636;9.516;2022-07-22T06:15:45;5.73;;;5.33;;
7761;SDS011;3925;48.636;9.516;2022-07-22T06:18:12;6.23;;;5.83;;
7761;SDS011;3925;48.636;9.516;2022-07-22T06:20:39;6.30;;;5.70;;
7761;SDS011;3925;48.636;9.516;2022-07-22T06:23:06;7.10;;;6.50;;
7761;SDS011;3925;48.636;9.516;2022-07-22T06:25:33;5.77;;;5.30;;
7761;SDS011;3925;48.636;9.516;2022-07-22T06:28:00;5.30;;;4.90;;
7761;SDS011;3925;48.636;9.516;2022-07-22T06:30:28;6.40;;;5.90;;
7761;SDS011;3925;48.636;9.516;2022-07-22T06:32:55;6.37;;;5.77;;
7761;SDS011;3925;48.636;9.516;2022-07-22T06:35:22;5.20;;;4.90;;
7761;SDS011;3925;48.636;9.516;2022-07-22T06:37:50;5.10;;;4.80;;
7761;SDS011;3925;48.636;9.516;2022-07-22T06:40:17;5.77;;;5.37;;
7761;SDS011;3925;48.636;9.516;2022-07-22T06:42:44;6.37;;;5.77;;
7761;SDS011;3925;48.636;9.516;2022-07-22T06:45:11;6.17;;;5.77;;
7761;SDS011;3925;48.636;9.516;2022-07-22T06:47:39;5.50;;;5.10;;
7761;SDS011;3925;48.636;9.516;2022-07-22T06:50:06;6.23;;;5.73;;
7761;SDS011;3925;48.636;9.516;2022-07-22T06:52:37;6.70;;;6.10;;
7761;SDS011;3925;48.636;9.516;2022-07-22T06:55:05;6.50;;;5.40;;
7761;SDS011;3925;48.636;9.516;2022-07-22T06:57:33;5.47;;;5.10;;
7761;SDS011;3925;48.636;9.516;2022-07-22T07:00:00;5.07;;;4.67;;
7761;SDS011;3925;48.636;9.516;2022-07-22T07:02:27;6.07;;;5.63;;
7761;SDS011;3925;48.636;9.516;2022-07-22T07:04:55;5.00;;;4.70;;
7761;SDS011;3925;48.636;9.516;2022-07-22T07:07:22;5.97;;;5.47;;
7761;SDS011;3925;48.636;9.516;2022-07-22T07:09:49;5.70;;;5.13;;
7761;SDS011;3925;48.636;9.516;2022-07-22T07:12:16;5.33;;;4.83;;
7761;SDS011;3925;48.636;9.516;2022-07-22T07:14:43;5.30;;;4.90;;
7761;SDS011;3925;48.636;9.516;2022-07-22T07:17:10;5.70;;;5.30;;
7761;SDS011;3925;48.636;9.516;2022-07-22T07:19:37;5.67;;;5.27;;
7761;SDS011;3925;48.636;9.516;2022-07-22T07:22:05;6.17;;;5.57;;
7761;SDS011;3925;48.636;9.516;2022-07-22T07:24:32;5.90;;;5.43;;
7761;SDS011;3925;48.636;9.516;2022-07-22T07:26:58;5.70;;;5.17;;
7761;SDS011;3925;48.636;9.516;2022-07-22T07:29:25;6.00;;;5.60;;
7761;SDS011;3925;48.636;9.516;2022-07-22T07:31:52;5.93;;;5.43;;
7761;SDS011;3925;48.636;9.516;2022-07-22T07:34:19;5.87;;;5.47;;
7761;SDS011;3925;48.636;9.516;2022-07-22T07:36:46;5.27;;;4.83;;
7761;SDS011;3925;48.636;9.516;2022-07-22T07:39:14;5.63;;;5.13;;
7761;SDS011;3925;48.636;9.516;2022-07-22T07:41:41;5.97;;;5.20;;
7761;SDS011;3925;48.636;9.516;2022-07-22T07:44:08;5.10;;;4.80;;
7761;SDS011;3925;48.636;9.516;2022-07-22T07:46:35;6.20;;;5.80;;
7761;SDS011;3925;48.636;9.516;2022-07-22T07:49:02;6.20;;;5.70;;
7761;SDS011;3925;48.636;9.516;2022-07-22T07:51:29;5.17;;;4.53;;
7761;SDS011;3925;48.636;9.516;2022-07-22T07:53:56;6.80;;;5.70;;
7761;SDS011;3925;48.636;9.516;2022-07-22T07:56:24;6.20;;;5.70;;
7761;SDS011;3925;48.636;9.516;2022-07-22T07:58:51;5.40;;;5.00;;
7761;SDS011;3925;48.636;9.516;2022-07-22T08:01:18;5.70;;;5.20;;
7761;SDS011;3925;48.636;9.516;2022-07-22T08:03:45;5.67;;;5.17;;
7761;SDS011;3925;48.636;9.516;2022-07-22T08:06:12;5.40;;;5.10;;
7761;SDS011;3925;48.636;9.516;2022-07-22T08:08:38;4.90;;;4.50;;
7761;SDS011;3925;48.636;9.516;2022-07-22T08:11:05;5.77;;;5.37;;
7761;SDS011;3925;48.636;9.516;2022-07-22T08:13:34;6.07;;;5.60;;
7761;SDS011;3925;48.636;9.516;2022-07-22T08:16:01;6.20;;;5.70;;
7761;SDS011;3925;48.636;9.516;2022-07-22T08:18:29;5.73;;;5.23;;
7761;SDS011;3925;48.636;9.516;2022-07-22T08:20:56;5.30;;;4.80;;
7761;SDS011;3925;48.636;9.516;2022-07-22T08:23:23;6.17;;;5.70;;
7761;SDS011;3925;48.636;9.516;2022-07-22T08:25:50;4.93;;;4.60;;
7761;SDS011;3925;48.636;9.516;2022-07-22T08:28:17;4.57;;;4.17;;
7761;SDS011;3925;48.636;9.516;2022-07-22T08:30:46;5.10;;;4.70;;
7761;SDS011;3925;48.636;9.516;2022-07-22T08:33:12;5.47;;;4.97;;
7761;SDS011;3925;48.636;9.516;2022-07-22T08:35:39;5.07;;;4.77;;
7761;SDS011;3925;48.636;9.516;2022-07-22T08:38:06;5.40;;;5.00;;
7761;SDS011;3925;48.636;9.516;2022-07-22T08:40:33;6.40;;;6.00;;
7761;SDS011;3925;48.636;9.516;2022-07-22T08:43:00;5.13;;;4.63;;
7761;SDS011;3925;48.636;9.516;2022-07-22T08:45:28;5.30;;;5.00;;
7761;SDS011;3925;48.636;9.516;2022-07-22T08:47:57;5.97;;;5.57;;
7761;SDS011;3925;48.636;9.516;2022-07-22T08:50:28;5.57;;;5.17;;
7761;SDS011;3925;48.636;9.516;2022-07-22T08:52:55;6.13;;;5.73;;
7761;SDS011;3925;48.636;9.516;2022-07-22T08:55:22;5.80;;;5.40;;
7761;SDS011;3925;48.636;9.516;2022-07-22T08:57:50;6.07;;;5.50;;
7761;SDS011;3925;48.636;9.516;2022-07-22T09:00:19;5.10;;;4.70;;
7761;SDS011;3925;48.636;9.516;2022-07-22T09:02:47;5.20;;;4.80;;
7761;SDS011;3925;48.636;9.516;2022-07-22T09:05:16;5.20;;;4.90;;
7761;SDS011;3925;48.636;9.516;2022-07-22T09:07:45;4.57;;;4.27;;
7761;SDS011;3925;48.636;9.516;2022-07-22T09:10:14;6.20;;;5.70;;
7761;SDS011;3925;48.636;9.516;2022-07-22T09:12:52;5.20;;;4.90;;
7761;SDS011;3925;48.636;9.516;2022-07-22T09:15:26;5.70;;;5.10;;
7761;SDS011;3925;48.636;9.516;2022-07-22T09:17:53;7.70;;;5.33;;
7761;SDS011;3925;48.636;9.516;2022-07-22T09:20:22;5.67;;;5.10;;
7761;SDS011;3925;48.636;9.516;2022-07-22T09:22:51;5.50;;;5.00;;
7761;SDS011;3925;48.636;9.516;2022-07-22T09:25:23;5.50;;;5.10;;
7761;SDS011;3925;48.636;9.516;2022-07-22T09:27:55;5.47;;;4.97;;
7761;SDS011;3925;48.636;9.516;2022-07-22T09:30:35;5.90;;;5.50;;
7761;SDS011;3925;48.636;9.516;2022-07-22T09:33:04;9.20;;;6.00;;
7761;SDS011;3925;48.636;9.516;2022-07-22T09:35:34;5.50;;;5.20;;
7761;SDS011;3925;48.636;9.516;2022-07-22T09:38:03;5.80;;;5.40;;
7761;SDS011;3925;48.636;9.516;2022-07-22T09:40:31;5.10;;;4.60;;
7761;SDS011;3925;48.636;9.516;2022-07-22T09:43:01;5.70;;;5.20;;
7761;SDS011;3925;48.636;9.516;2022-07-22T09:45:30;5.83;;;5.37;;
7761;SDS011;3925;48.636;9.516;2022-07-22T09:47:58;5.60;;;5.20;;
7761;SDS011;3925;48.636;9.516;2022-07-22T09:50:27;5.17;;;4.83;;
7761;SDS011;3925;48.636;9.516;2022-07-22T09:52:57;5.00;;;4.70;;
7761;SDS011;3925;48.636;9.516;2022-07-22T09:55:25;5.23;;;4.93;;
7761;SDS011;3925;48.636;9.516;2022-07-22T09:57:54;5.10;;;4.70;;
7761;SDS011;3925;48.636;9.516;2022-07-22T10:00:23;5.13;;;4.73;;
7761;SDS011;3925;48.636;9.516;2022-07-22T10:02:51;5.50;;;5.20;;
7761;SDS011;3925;48.636;9.516;2022-07-22T10:05:21;6.07;;;5.60;;
7761;SDS011;3925;48.636;9.516;2022-07-22T10:07:49;5.17;;;4.87;;
7761;SDS011;3925;48.636;9.516;2022-07-22T10:10:19;5.27;;;4.87;;
7761;SDS011;3925;48.636;9.516;2022-07-22T10:12:47;6.00;;;5.60;;
7761;SDS011;3925;48.636;9.516;2022-07-22T10:15:15;5.43;;;5.03;;
7761;SDS011;3925;48.636;9.516;2022-07-22T10:17:44;6.00;;;5.50;;
7761;SDS011;3925;48.636;9.516;2022-07-22T10:20:13;5.33;;;4.93;;
7761;SDS011;3925;48.636;9.516;2022-07-22T10:22:44;6.20;;;5.70;;
7761;SDS011;3925;48.636;9.516;2022-07-22T10:25:22;5.17;;;4.83;;
7761;SDS011;3925;48.636;9.516;2022-07-22T10:27:51;5.87;;;5.37;;
7761;SDS011;3925;48.636;9.516;2022-07-22T10:30:21;4.93;;;4.63;;
7761;SDS011;3925;48.636;9.516;2022-07-22T10:33:01;6.33;;;5.83;;
7761;SDS011;3925;48.636;9.516;2022-07-22T10:35:33;5.63;;;5.13;;
7761;SDS011;3925;48.636;9.516;2022-07-22T10:38:03;5.83;;;5.33;;
7761;SDS011;3925;48.636;9.516;2022-07-22T10:40:44;5.77;;;5.30;;
7761;SDS011;3925;48.636;9.516;2022-07-22T10:43:13;5.57;;;5.17;;
7761;SDS011;3925;48.636;9.516;2022-07-22T10:45:42;5.83;;;5.33;;
7761;SDS011;3925;48.636;9.516;2022-07-22T10:48:13;5.87;;;5.37;;
7761;SDS011;3925;48.636;9.516;2022-07-22T10:50:43;5.67;;;5.17;;
7761;SDS011;3925;48.636;9.516;2022-07-22T10:53:12;5.87;;;5.37;;
7761;SDS011;3925;48.636;9.516;2022-07-22T10:58:48;5.90;;;5.40;;
7761;SDS011;3925;48.636;9.516;2022-07-22T11:01:21;6.03;;;5.63;;
7761;SDS011;3925;48.636;9.516;2022-07-22T11:03:49;5.97;;;5.50;;
7761;SDS011;3925;48.636;9.516;2022-07-22T11:06:18;5.20;;;4.90;;
7761;SDS011;3925;48.636;9.516;2022-07-22T11:08:51;6.47;;;5.93;;
7761;SDS011;3925;48.636;9.516;2022-07-22T11:11:31;6.53;;;6.00;;
7761;SDS011;3925;48.636;9.516;2022-07-22T11:14:10;7.17;;;6.67;;
7761;SDS011;3925;48.636;9.516;2022-07-22T11:16:38;6.17;;;5.67;;
7761;SDS011;3925;48.636;9.516;2022-07-22T11:19:05;6.93;;;6.30;;
7761;SDS011;3925;48.636;9.516;2022-07-22T11:21:32;7.77;;;6.57;;
7761;SDS011;3925;48.636;9.516;2022-07-22T11:24:01;5.97;;;5.57;;
7761;SDS011;3925;48.636;9.516;2022-07-22T11:26:33;6.53;;;5.93;;
7761;SDS011;3925;48.636;9.516;2022-07-22T11:29:03;6.93;;;6.43;;
7761;SDS011;3925;48.636;9.516;2022-07-22T11:31:30;6.37;;;5.83;;
7761;SDS011;3925;48.636;9.516;2022-07-22T11:34:04;6.43;;;5.93;;
7761;SDS011;3925;48.636;9.516;2022-07-22T11:36:33;6.23;;;5.83;;
7761;SDS011;3925;48.636;9.516;2022-07-22T11:39:01;6.23;;;5.73;;
7761;SDS011;3925;48.636;9.516;2022-07-22T11:41:28;6.80;;;6.20;;
7761;SDS011;3925;48.636;9.516;2022-07-22T11:43:58;5.97;;;5.57;;
7761;SDS011;3925;48.636;9.516;2022-07-22T11:46:25;5.90;;;5.40;;
7761;SDS011;3925;48.636;9.516;2022-07-22T11:48:53;6.07;;;5.57;;
7761;SDS011;3925;48.636;9.516;2022-07-22T11:51:26;5.97;;;5.40;;
7761;SDS011;3925;48.636;9.516;2022-07-22T11:53:54;12.37;;;6.60;;
7761;SDS011;3925;48.636;9.516;2022-07-22T11:56:21;6.00;;;5.57;;
7761;SDS011;3925;48.636;9.516;2022-07-22T11:58:49;6.97;;;5.73;;
7761;SDS011;3925;48.636;9.516;2022-07-22T12:01:21;6.50;;;6.00;;
7761;SDS011;3925;48.636;9.516;2022-07-22T12:03:50;5.37;;;5.07;;
7761;SDS011;3925;48.636;9.516;2022-07-22T12:06:20;7.67;;;6.70;;
7761;SDS011;3925;48.636;9.516;2022-07-22T12:08:49;6.80;;;6.23;;
7761;SDS011;3925;48.636;9.516;2022-07-22T12:11:18;5.97;;;5.50;;
7761;SDS011;3925;48.636;9.516;2022-07-22T12:13:48;6.30;;;5.80;;
7761;SDS011;3925;48.636;9.516;2022-07-22T12:16:18;6.00;;;5.60;;
7761;SDS011;3925;48.636;9.516;2022-07-22T12:18:51;10.30;;;6.63;;
7761;SDS011;3925;48.636;9.516;2022-07-22T12:21:20;5.70;;;5.30;;
7761;SDS011;3925;48.636;9.516;2022-07-22T12:23:51;7.13;;;6.63;;
7761;SDS011;3925;48.636;9.516;2022-07-22T12:29:19;6.50;;;5.90;;
7761;SDS011;3925;48.636;9.516;2022-07-22T12:31:49;6.47;;;6.03;;
7761;SDS011;3925;48.636;9.516;2022-07-22T12:34:28;6.17;;;5.77;;
7761;SDS011;3925;48.636;9.516;2022-07-22T12:36:56;6.07;;;5.53;;
7761;SDS011;3925;48.636;9.516;2022-07-22T12:39:24;6.10;;;5.57;;
7761;SDS011;3925;48.636;9.516;2022-07-22T12:41:52;7.80;;;5.53;;
7761;SDS011;3925;48.636;9.516;2022-07-22T12:44:20;6.13;;;5.73;;
7761;SDS011;3925;48.636;9.516;2022-07-22T12:46:51;6.20;;;5.70;;
7761;SDS011;3925;48.636;9.516;2022-07-22T12:49:19;6.30;;;5.90;;
7761;SDS011;3925;48.636;9.516;2022-07-22T12:52:07;7.30;;;5.57;;
7761;SDS011;3925;48.636;9.516;2022-07-22T12:54:36;6.37;;;5.80;;
7761;SDS011;3925;48.636;9.516;2022-07-22T12:57:05;6.77;;;6.17;;
7761;SDS011;3925;48.636;9.516;2022-07-22T12:59:33;6.37;;;5.70;;
7761;SDS011;3925;48.636;9.516;2022-07-22T13:02:02;6.30;;;5.80;;
7761;SDS011;3925;48.636;9.516;2022-07-22T13:04:29;6.37;;;5.80;;
7761;SDS011;3925;48.636;9.516;2022-07-22T13:06:56;6.43;;;6.03;;
7761;SDS011;3925;48.636;9.516;2022-07-22T13:09:23;5.70;;;5.30;;
7761;SDS011;3925;48.636;9.516;2022-07-22T13:11:50;6.00;;;5.50;;
7761;SDS011;3925;48.636;9.516;2022-07-22T13:14:17;6.80;;;6.20;;
7761;SDS011;3925;48.636;9.516;2022-07-22T13:16:44;6.73;;;6.17;;
7761;SDS011;3925;48.636;9.516;2022-07-22T13:19:12;5.73;;;5.33;;
7761;SDS011;3925;48.636;9.516;2022-07-22T13:21:39;6.53;;;6.03;;
7761;SDS011;3925;48.636;9.516;2022-07-22T13:24:06;6.50;;;5.73;;
7761;SDS011;3925;48.636;9.516;2022-07-22T13:26:33;5.90;;;5.50;;
7761;SDS011;3925;48.636;9.516;2022-07-22T13:29:00;6.10;;;5.60;;
7761;SDS011;3925;48.636;9.516;2022-07-22T13:31:27;6.40;;;5.80;;
7761;SDS011;3925;48.636;9.516;2022-07-22T13:33:55;5.77;;;5.27;;
7761;SDS011;3925;48.636;9.516;2022-07-22T13:36:24;5.90;;;5.50;;
7761;SDS011;3925;48.636;9.516;2022-07-22T13:38:53;5.47;;;5.17;;
7761;SDS011;3925;48.636;9.516;2022-07-22T13:41:20;6.27;;;5.87;;
7761;SDS011;3925;48.636;9.516;2022-07-22T13:43:47;6.80;;;6.30;;
7761;SDS011;3925;48.636;9.516;2022-07-22T13:46:16;5.83;;;5.43;;
7761;SDS011;3925;48.636;9.516;2022-07-22T13:48:43;5.73;;;5.30;;
7761;SDS011;3925;48.636;9.516;2022-07-22T13:51:10;5.97;;;5.57;;
7761;SDS011;3925;48.636;9.516;2022-07-22T13:53:38;6.80;;;5.70;;
7761;SDS011;3925;48.636;9.516;2022-07-22T13:56:06;6.30;;;5.80;;
7761;SDS011;3925;48.636;9.516;2022-07-22T13:58:35;6.07;;;5.67;;
7761;SDS011;3925;48.636;9.516;2022-07-22T14:01:02;7.20;;;6.50;;
7761;SDS011;3925;48.636;9.516;2022-07-22T14:03:29;6.10;;;5.70;;
7761;SDS011;3925;48.636;9.516;2022-07-22T14:05:55;6.60;;;5.93;;
7761;SDS011;3925;48.636;9.516;2022-07-22T14:08:22;6.23;;;5.80;;
7761;SDS011;3925;48.636;9.516;2022-07-22T14:10:51;6.20;;;5.73;;
7761;SDS011;3925;48.636;9.516;2022-07-22T14:13:17;5.83;;;5.40;;
7761;SDS011;3925;48.636;9.516;2022-07-22T14:15:44;9.23;;;5.63;;
7761;SDS011;3925;48.636;9.516;2022-07-22T14:18:11;5.80;;;5.40;;
7761;SDS011;3925;48.636;9.516;2022-07-22T14:20:38;6.00;;;5.60;;
7761;SDS011;3925;48.636;9.516;2022-07-22T14:23:06;5.97;;;5.47;;
7761;SDS011;3925;48.636;9.516;2022-07-22T14:25:34;6.40;;;5.90;;
7761;SDS011;3925;48.636;9.516;2022-07-22T14:28:03;5.67;;;5.23;;
7761;SDS011;3925;48.636;9.516;2022-07-22T14:30:31;5.70;;;5.30;;
7761;SDS011;3925;48.636;9.516;2022-07-22T14:32:59;5.90;;;5.50;;
7761;SDS011;3925;48.636;9.516;2022-07-22T14:35:26;6.70;;;5.20;;
7761;SDS011;3925;48.636;9.516;2022-07-22T14:37:54;6.70;;;6.30;;
7761;SDS011;3925;48.636;9.516;2022-07-22T14:40:20;4.93;;;4.63;;
7761;SDS011;3925;48.636;9.516;2022-07-22T14:42:47;5.97;;;5.57;;
7761;SDS011;3925;48.636;9.516;2022-07-22T14:45:16;6.00;;;5.60;;
7761;SDS011;3925;48.636;9.516;2022-07-22T14:47:43;6.30;;;5.90;;
7761;SDS011;3925;48.636;9.516;2022-07-22T14:50:10;6.07;;;5.60;;
7761;SDS011;3925;48.636;9.516;2022-07-22T14:52:36;6.27;;;5.67;;
7761;SDS011;3925;48.636;9.516;2022-07-22T14:55:04;6.70;;;6.20;;
7761;SDS011;3925;48.636;9.516;2022-07-22T14:57:31;6.47;;;6.00;;
7761;SDS011;3925;48.636;9.516;2022-07-22T14:59:58;6.00;;;5.50;;
7761;SDS011;3925;48.636;9.516;2022-07-22T15:02:26;6.00;;;5.60;;
7761;SDS011;3925;48.636;9.516;2022-07-22T15:04:53;6.70;;;6.10;;
7761;SDS011;3925;48.636;9.516;2022-07-22T15:07:20;6.10;;;5.70;;
7761;SDS011;3925;48.636;9.516;2022-07-22T15:09:47;6.70;;;6.20;;
7761;SDS011;3925;48.636;9.516;2022-07-22T15:12:14;5.80;;;5.40;;
7761;SDS011;3925;48.636;9.516;2022-07-22T15:14:42;6.00;;;5.57;;
7761;SDS011;3925;48.636;9.516;2022-07-22T15:17:08;5.87;;;5.37;;
7761;SDS011;3925;48.636;9.516;2022-07-22T15:19:37;6.30;;;5.90;;
7761;SDS011;3925;48.636;9.516;2022-07-22T15:22:03;6.83;;;6.10;;
7761;SDS011;3925;48.636;9.516;2022-07-22T15:24:30;6.27;;;5.80;;
7761;SDS011;3925;48.636;9.516;2022-07-22T15:26:57;6.93;;;6.27;;